createdAt,value
2019-01-14T00:01:04.802Z,1.40
2019-01-14T00:07:06.424Z,1.33
2019-01-14T00:13:08.884Z,4.87
2019-01-14T00:19:10.292Z,2.90
2019-01-14T00:25:11.644Z,2.73
2019-01-14T00:31:12.960Z,8.93
2019-01-14T00:37:14.660Z,3.50
2019-01-14T00:43:16.052Z,4.37
2019-01-14T00:49:17.484Z,1.83
2019-01-14T00:55:18.889Z,2.70
2019-01-14T01:01:20.244Z,3.77
2019-01-14T01:07:21.668Z,4.57
2019-01-14T01:13:24.016Z,3.50
2019-01-14T01:19:25.415Z,3.70
2019-01-14T01:25:26.724Z,3.00
2019-01-14T01:31:28.129Z,4.07
2019-01-14T01:37:29.540Z,3.00
2019-01-14T01:43:30.957Z,4.77
2019-01-14T01:49:33.479Z,4.60
2019-01-14T01:55:34.801Z,3.83
2019-01-14T02:01:36.527Z,3.73
2019-01-14T02:07:37.947Z,3.07
2019-01-14T02:13:40.302Z,4.30
2019-01-14T02:19:42.977Z,2.07
2019-01-14T02:25:44.380Z,2.53
2019-01-14T02:31:45.690Z,4.17
2019-01-14T02:37:47.637Z,2.77
2019-01-14T02:43:49.013Z,2.43
2019-01-14T02:49:50.457Z,4.67
2019-01-14T02:55:51.860Z,3.77
2019-01-14T03:01:53.170Z,3.13
2019-01-14T03:07:55.531Z,2.50
2019-01-14T03:13:58.679Z,1.83
2019-01-14T03:20:00.224Z,2.20
2019-01-14T03:26:01.614Z,1.27
2019-01-14T03:32:03.050Z,2.10
2019-01-14T03:38:04.815Z,2.60
2019-01-14T03:44:06.185Z,3.27
2019-01-14T03:50:13.652Z,3.83
2019-01-14T03:56:15.048Z,4.67
2019-01-14T04:02:16.659Z,2.60
2019-01-14T04:08:18.152Z,3.50
2019-01-14T04:14:21.620Z,1.63
2019-01-14T04:20:23.132Z,2.27
2019-01-14T04:26:24.549Z,2.77
2019-01-14T04:32:26.049Z,2.43
2019-01-14T04:38:27.359Z,3.73
2019-01-14T04:44:28.720Z,2.27
2019-01-14T04:50:30.157Z,4.70
2019-01-14T04:56:31.560Z,3.17
2019-01-14T05:02:32.971Z,4.50
2019-01-14T05:08:34.528Z,3.27
2019-01-14T05:14:36.692Z,2.00
2019-01-14T05:20:38.272Z,4.97
2019-01-14T05:26:39.675Z,4.67
2019-01-14T05:32:40.980Z,4.33
2019-01-14T05:38:42.392Z,4.50
2019-01-14T05:44:43.694Z,7.17
2019-01-14T05:50:45.092Z,3.67
2019-01-14T05:56:46.402Z,5.60
2019-01-14T06:02:47.780Z,8.97
2019-01-14T06:08:49.193Z,8.17
2019-01-14T06:14:52.685Z,16.57
2019-01-14T06:20:54.252Z,21.43
2019-01-14T06:26:55.669Z,61.67
2019-01-14T06:32:57.083Z,15.57
2019-01-14T06:38:58.492Z,36.73
2019-01-14T06:44:59.852Z,28.00
2019-01-14T06:51:01.304Z,40.53
2019-01-14T06:57:02.708Z,25.60
2019-01-14T07:03:04.117Z,22.90
2019-01-14T07:09:06.684Z,20.37
2019-01-14T07:15:08.884Z,21.73
2019-01-14T07:21:10.294Z,19.00
2019-01-14T07:27:11.756Z,16.07
2019-01-14T07:33:13.208Z,17.50
2019-01-14T07:39:14.612Z,14.87
2019-01-14T07:45:17.116Z,20.53
2019-01-14T07:51:18.448Z,15.70
2019-01-14T07:57:19.756Z,16.70
2019-01-14T08:03:21.375Z,11.57
2019-01-14T08:09:22.891Z,18.20
2019-01-14T08:15:25.189Z,19.37
2019-01-14T08:21:26.769Z,16.67
2019-01-14T08:27:28.144Z,17.23
2019-01-14T08:33:29.548Z,21.40
2019-01-14T08:39:30.868Z,24.00
2019-01-14T08:45:32.274Z,18.50
2019-01-14T08:51:33.712Z,56.47
2019-01-14T08:57:35.108Z,37.60
2019-01-14T09:03:36.424Z,21.40
2019-01-14T09:09:37.956Z,12.93
2019-01-14T09:15:40.336Z,12.50
2019-01-14T09:21:41.828Z,13.73
2019-01-14T09:27:43.288Z,15.73
2019-01-14T09:33:44.787Z,11.57
2019-01-14T09:39:46.104Z,12.63
2019-01-14T09:45:47.558Z,13.17
2019-01-14T09:51:48.992Z,13.87
2019-01-14T09:57:50.300Z,21.00
2019-01-14T10:03:51.708Z,16.23
2019-01-14T10:09:54.035Z,16.53
2019-01-14T10:15:57.128Z,20.03
2019-01-14T10:21:58.816Z,16.63
2019-01-14T10:28:00.130Z,17.77
2019-01-14T10:34:01.640Z,19.30
2019-01-14T10:40:10.019Z,13.67
2019-01-14T10:46:11.433Z,8.13
2019-01-14T10:52:12.872Z,21.23
2019-01-14T10:58:14.177Z,26.27
2019-01-14T11:04:15.484Z,17.23
2019-01-14T11:10:16.928Z,25.00
2019-01-14T11:16:19.344Z,39.43
2019-01-14T11:22:20.749Z,42.63
2019-01-14T11:28:22.061Z,13.53
2019-01-14T11:34:23.465Z,12.07
2019-01-14T11:40:28.596Z,19.03
2019-01-14T11:46:29.999Z,17.20
2019-01-14T11:52:31.440Z,14.63
2019-01-14T11:58:32.844Z,16.50
2019-01-14T12:04:34.508Z,13.27
2019-01-14T12:10:36.045Z,11.63
2019-01-14T12:16:38.503Z,13.07
2019-01-14T12:22:40.058Z,20.43
2019-01-14T12:28:41.472Z,13.87
2019-01-14T12:34:42.884Z,14.10
2019-01-14T12:40:44.288Z,32.50
2019-01-14T12:46:45.591Z,26.80
2019-01-14T12:52:46.903Z,40.90
2019-01-14T12:58:48.309Z,16.17
2019-01-14T13:04:50.020Z,10.80
2019-01-14T13:10:51.549Z,13.63
2019-01-14T13:16:53.811Z,8.63
2019-01-14T13:22:55.208Z,16.93
2019-01-14T13:28:56.520Z,21.17
2019-01-14T13:34:58.039Z,34.07
2019-01-14T13:40:59.457Z,27.67
2019-01-14T13:47:00.917Z,32.07
2019-01-14T13:53:02.336Z,32.63
2019-01-14T13:59:03.647Z,48.57
2019-01-14T14:05:06.252Z,30.77
2019-01-14T14:11:07.684Z,66.40
2019-01-14T14:17:09.128Z,80.27
2019-01-14T14:23:10.727Z,25.77
2019-01-14T14:29:12.241Z,12.53
2019-01-14T14:35:13.835Z,13.10
2019-01-14T14:41:15.257Z,18.80
2019-01-14T14:47:16.574Z,16.33
2019-01-14T14:53:18.004Z,34.10
2019-01-14T14:59:19.311Z,68.97
2019-01-14T15:05:20.716Z,50.50
2019-01-14T15:11:22.135Z,130.70
2019-01-14T15:17:24.484Z,75.97
2019-01-14T15:23:25.900Z,75.23
2019-01-14T15:29:27.356Z,57.40
2019-01-14T15:35:30.094Z,44.13
2019-01-14T15:41:31.485Z,31.63
2019-01-14T15:47:32.948Z,49.77
2019-01-14T15:53:34.389Z,34.57
2019-01-14T15:59:35.786Z,30.63
2019-01-14T16:05:37.489Z,29.70
2019-01-14T16:11:39.021Z,36.60
2019-01-14T16:17:41.315Z,27.13
2019-01-14T16:23:42.740Z,31.33
2019-01-14T16:29:44.128Z,33.27
2019-01-14T16:35:45.651Z,30.27
2019-01-14T16:41:47.051Z,129.90
2019-01-14T16:47:48.514Z,249.30
2019-01-14T16:53:49.937Z,261.23
2019-01-14T16:59:51.249Z,110.10
2019-01-14T17:05:52.620Z,119.13
2019-01-14T17:11:55.759Z,66.00
2019-01-14T17:17:58.048Z,58.70
2019-01-14T17:24:00.644Z,91.63
2019-01-14T17:30:03.296Z,57.23
2019-01-14T17:36:04.796Z,33.97
2019-01-14T17:42:06.533Z,29.20
2019-01-14T17:48:07.994Z,29.87
2019-01-14T17:54:09.449Z,65.20
2019-01-14T18:00:20.707Z,39.60
2019-01-14T18:06:22.093Z,34.33
2019-01-14T18:12:24.348Z,43.63
2019-01-14T18:18:25.844Z,35.90
2019-01-14T18:24:27.313Z,43.43
2019-01-14T18:30:28.715Z,37.13
2019-01-14T18:36:30.480Z,38.00
2019-01-14T18:42:31.786Z,28.63
2019-01-14T18:48:33.345Z,27.97
2019-01-14T18:54:36.552Z,21.87
2019-01-14T19:00:37.973Z,28.70
2019-01-14T19:06:39.480Z,27.83
2019-01-14T19:12:41.114Z,95.33
2019-01-14T19:18:43.356Z,105.10
2019-01-14T19:24:44.856Z,72.87
2019-01-14T19:30:46.268Z,49.80
2019-01-14T19:36:48.077Z,175.37
2019-01-14T19:42:49.489Z,258.30
2019-01-14T19:48:50.801Z,177.80
2019-01-14T19:54:52.248Z,166.40
2019-01-14T20:00:53.680Z,210.20
2019-01-14T20:06:55.064Z,95.73
2019-01-14T20:12:57.644Z,130.90
2019-01-14T20:18:59.984Z,94.53
2019-01-14T20:25:01.833Z,42.30
2019-01-14T20:31:03.240Z,62.80
2019-01-14T20:37:04.945Z,61.43
2019-01-14T20:43:06.256Z,52.80
2019-01-14T20:49:07.660Z,42.80
2019-01-14T20:55:09.124Z,47.60
2019-01-14T21:01:10.542Z,46.03
2019-01-14T21:07:13.461Z,51.83
2019-01-14T21:13:15.924Z,32.80
2019-01-14T21:19:18.509Z,44.40
2019-01-14T21:25:20.154Z,47.70
2019-01-14T21:31:21.694Z,38.60
2019-01-14T21:37:23.137Z,26.07
2019-01-14T21:43:24.581Z,40.83
2019-01-14T21:49:26.072Z,40.50
2019-01-14T21:55:28.520Z,27.43
2019-01-14T22:01:29.928Z,23.17
2019-01-14T22:07:31.582Z,22.17
2019-01-14T22:13:33.216Z,29.93
2019-01-14T22:19:35.617Z,24.73
2019-01-14T22:25:37.144Z,26.50
2019-01-14T22:31:38.640Z,26.60
2019-01-14T22:37:40.086Z,21.10
2019-01-14T22:43:41.488Z,26.80
2019-01-14T22:49:43.984Z,26.37
2019-01-14T22:55:45.464Z,29.20
2019-01-14T23:01:46.783Z,25.67
2019-01-14T23:07:49.295Z,27.13
2019-01-14T23:13:52.476Z,28.30
2019-01-14T23:19:54.913Z,22.00
2019-01-14T23:25:56.404Z,25.93
2019-01-14T23:31:57.716Z,25.00
2019-01-14T23:37:59.129Z,22.30
2019-01-14T23:44:00.540Z,15.97
2019-01-14T23:50:01.947Z,16.40
2019-01-14T23:56:03.487Z,12.17
